Time;durP1;ratioP1;P1;durP2;ratioP2;P2;SDS_P1;SDS_P2;PMS_P1;PMS_P2;Temp;Humidity;BMP_temperature;BMP_pressure;BME280_temperature;BME280_humidity;BME280_pressure;Samples;Min_cycle;Max_cycle;Signal;HPM_P1;HPM_P2
2022/04/26 03:37:05;;;;;;;17.90;10.43;;;8.30;99.90;;;;;;4852755;29;20222;-71
2022/04/26 03:39:32;;;;;;;19.93;11.23;;;8.30;99.90;;;;;;4856882;29;20313;-72
2022/04/26 03:41:58;;;;;;;21.37;11.07;;;8.40;99.90;;;;;;4886424;29;20220;-72
2022/04/26 03:44:23;;;;;;;22.10;11.97;;;8.30;99.90;;;;;;4915339;29;20223;-71
2022/04/26 03:46:49;;;;;;;15.83;10.17;;;8.30;99.90;;;;;;4923588;29;20589;-72
2022/04/26 03:49:15;;;;;;;17.07;11.23;;;8.30;99.90;;;;;;4923453;29;20196;-71
2022/04/26 03:51:41;;;;;;;20.23;11.17;;;8.20;99.90;;;;;;4923988;29;20208;-71
2022/04/26 03:54:06;;;;;;;17.97;11.10;;;8.30;99.90;;;;;;4923064;29;20216;-71
2022/04/26 03:56:32;;;;;;;18.93;10.97;;;8.30;99.90;;;;;;4925070;29;20220;-72
2022/04/26 03:58:57;;;;;;;18.10;11.30;;;8.40;99.90;;;;;;4926299;29;20639;-72
2022/04/26 04:01:23;;;;;;;21.53;12.30;;;8.40;99.90;;;;;;4926364;29;20192;-71
2022/04/26 04:03:49;;;;;;;17.03;10.33;;;8.50;99.90;;;;;;4928015;29;20590;-72
2022/04/26 04:06:14;;;;;;;18.47;10.97;;;8.70;99.90;;;;;;4926856;29;20275;-71
2022/04/26 04:08:40;;;;;;;18.37;10.37;;;8.70;99.90;;;;;;4925912;29;21462;-71
2022/04/26 04:11:05;;;;;;;16.13;10.00;;;8.70;99.90;;;;;;4926590;29;20258;-72
2022/04/26 04:13:31;;;;;;;18.37;10.53;;;8.70;99.90;;;;;;4919784;29;20214;-72
2022/04/26 04:15:56;;;;;;;18.27;11.03;;;9.00;99.90;;;;;;4927025;29;20259;-72
2022/04/26 04:21:06;;;;;;;18.07;10.77;;;9.00;99.90;;;;;;4913577;29;20720;-72
2022/04/26 04:23:36;;;;;;;20.60;11.47;;;9.20;99.90;;;;;;4915300;29;20212;-72
2022/04/26 04:26:01;;;;;;;19.67;10.63;;;9.20;99.90;;;;;;4915397;29;20709;-72
2022/04/26 04:28:27;;;;;;;16.43;10.20;;;9.30;99.90;;;;;;4914466;29;20268;-73
2022/04/26 04:30:52;;;;;;;16.70;9.73;;;9.50;99.90;;;;;;4915744;29;20538;-72
2022/04/26 04:33:17;;;;;;;20.47;10.10;;;9.70;99.90;;;;;;4898273;29;20212;-71
2022/04/26 04:35:43;;;;;;;17.27;9.77;;;10.60;99.90;;;;;;4914923;29;20213;-71
2022/04/26 04:38:09;;;;;;;16.77;10.37;;;11.60;99.90;;;;;;4897478;29;20205;-71
2022/04/26 04:40:34;;;;;;;15.90;9.63;;;12.10;99.90;;;;;;4915018;29;20209;-73
2022/04/26 04:43:00;;;;;;;16.93;10.30;;;11.90;99.90;;;;;;4915651;29;20236;-72
2022/04/26 04:45:25;;;;;;;16.10;9.40;;;11.60;99.90;;;;;;4914551;29;20257;-72
2022/04/26 04:47:51;;;;;;;19.23;9.47;;;11.70;99.90;;;;;;4940546;23;20240;-78
2022/04/26 04:50:16;;;;;;;17.83;9.93;;;12.60;99.90;;;;;;4933830;29;20218;-77
2022/04/26 04:52:42;;;;;;;16.93;9.73;;;12.30;99.90;;;;;;4934185;29;20697;-77
2022/04/26 04:55:08;;;;;;;15.83;9.77;;;13.00;99.90;;;;;;4934446;29;20230;-76
2022/04/26 04:57:33;;;;;;;14.53;9.33;;;13.60;99.90;;;;;;4916743;29;20211;-77
2022/04/26 05:00:03;;;;;;;14.20;8.97;;;14.00;99.90;;;;;;4916239;29;20581;-77
2022/04/26 05:02:28;;;;;;;13.45;8.85;;;14.30;99.90;;;;;;4934471;29;20630;-77
2022/04/26 05:04:54;;;;;;;18.65;9.80;;;16.00;99.90;;;;;;4933526;29;20212;-78
2022/04/26 05:07:20;;;;;;;12.23;8.50;;;17.40;99.90;;;;;;4934067;29;20208;-78
2022/04/26 05:09:45;;;;;;;11.88;8.15;;;18.60;99.90;;;;;;4934120;29;20176;-78
2022/04/26 05:12:10;;;;;;;15.27;8.35;;;18.10;99.90;;;;;;4917021;29;20220;-78
2022/04/26 05:14:36;;;;;;;11.57;7.72;;;17.40;99.90;;;;;;4933879;29;20693;-77
2022/04/26 05:17:01;;;;;;;13.40;8.15;;;16.60;99.90;;;;;;4918831;29;20223;-77
2022/04/26 05:19:27;;;;;;;10.13;6.82;;;17.60;99.90;;;;;;4933568;29;20176;-76
2022/04/26 05:21:52;;;;;;;12.35;7.80;;;17.60;99.90;;;;;;4916817;29;20220;-77
2022/04/26 05:27:03;;;;;;;10.10;7.32;;;16.40;99.90;;;;;;4934686;29;20226;-77
2022/04/26 05:29:29;;;;;;;9.45;6.80;;;16.50;99.90;;;;;;4932616;29;20299;-77
2022/04/26 05:31:54;;;;;;;10.23;6.60;;;17.50;99.90;;;;;;4933812;29;20298;-78
2022/04/26 05:34:20;;;;;;;9.43;6.55;;;18.90;99.90;;;;;;4916388;29;20180;-77
2022/04/26 05:36:45;;;;;;;13.95;6.80;;;19.30;99.90;;;;;;4933876;29;20250;-77
2022/04/26 05:39:11;;;;;;;9.52;6.32;;;20.50;99.90;;;;;;4915669;29;20656;-77
2022/04/26 05:41:36;;;;;;;10.48;6.65;;;19.30;99.90;;;;;;4933155;29;20237;-77
2022/04/26 05:44:02;;;;;;;11.05;6.80;;;20.00;99.90;;;;;;4933502;29;20212;-77
2022/04/26 05:46:27;;;;;;;9.77;6.45;;;19.50;99.90;;;;;;4933085;29;20207;-77
2022/04/26 05:48:53;;;;;;;10.68;6.82;;;20.00;99.90;;;;;;4933067;29;20574;-75
2022/04/26 05:51:19;;;;;;;9.32;6.00;;;20.10;99.90;;;;;;4933464;29;20219;-75
2022/04/26 05:53:44;;;;;;;10.07;6.45;;;19.00;99.90;;;;;;4933340;29;20238;-75
2022/04/26 05:56:12;;;;;;;8.45;6.28;;;19.50;99.90;;;;;;4933082;29;20219;-75
2022/04/26 05:58:37;;;;;;;10.68;6.80;;;19.20;99.90;;;;;;4915427;29;20219;-75
2022/04/26 06:01:03;;;;;;;9.80;6.65;;;18.90;99.90;;;;;;4916839;29;20187;-77
2022/04/26 06:03:29;;;;;;;8.30;5.65;;;17.80;99.90;;;;;;4915858;29;20275;-77
2022/04/26 06:05:55;;;;;;;8.43;5.90;;;18.90;99.90;;;;;;4933346;29;20592;-76
2022/04/26 06:08:22;;;;;;;8.05;5.68;;;20.30;99.90;;;;;;4936183;29;20226;-75
2022/04/26 06:10:47;;;;;;;9.55;5.72;;;20.80;99.90;;;;;;4933253;28;20218;-75
2022/04/26 06:13:12;;;;;;;12.55;5.80;;;21.40;99.90;;;;;;4916088;29;20184;-76
2022/04/26 06:15:38;;;;;;;8.05;4.57;;;21.10;99.80;;;;;;4933443;29;20212;-75
2022/04/26 06:18:04;;;;;;;9.00;4.18;;;20.70;98.70;;;;;;4934323;28;20315;-75
2022/04/26 06:20:29;;;;;;;6.13;3.83;;;21.10;97.60;;;;;;4919351;29;20234;-75
2022/04/26 06:22:55;;;;;;;4.22;3.58;;;21.00;97.20;;;;;;4936750;29;20251;-74
2022/04/26 06:25:20;;;;;;;9.43;4.00;;;20.50;95.20;;;;;;4936456;29;20183;-76
2022/04/26 06:27:47;;;;;;;7.90;4.10;;;21.20;94.50;;;;;;4919519;29;20218;-76
2022/04/26 06:30:13;;;;;;;6.10;3.88;;;20.00;94.00;;;;;;4936139;29;20752;-76
2022/04/26 06:32:38;;;;;;;6.18;3.50;;;20.70;94.10;;;;;;4936323;29;20215;-77
2022/04/26 06:35:04;;;;;;;5.93;3.47;;;21.20;93.00;;;;;;4919304;29;20220;-77
2022/04/26 06:37:30;;;;;;;7.40;4.15;;;20.50;92.30;;;;;;4936328;29;20249;-77
2022/04/26 06:39:56;;;;;;;8.07;3.75;;;20.20;92.30;;;;;;4936259;29;20563;-77
2022/04/26 06:42:22;;;;;;;6.95;3.72;;;20.50;92.60;;;;;;4919107;29;20214;-77
2022/04/26 06:44:47;;;;;;;6.93;4.38;;;22.00;91.30;;;;;;4921398;29;20473;-78
2022/04/26 06:47:13;;;;;;;8.30;4.28;;;21.90;88.50;;;;;;4922654;29;20234;-78
2022/04/26 06:49:38;;;;;;;5.53;3.80;;;22.80;85.80;;;;;;4938678;29;20243;-78
2022/04/26 06:52:04;;;;;;;5.88;3.80;;;22.30;86.70;;;;;;4940169;29;20223;-78
2022/04/26 06:54:29;;;;;;;27.08;6.88;;;22.50;84.00;;;;;;4935877;29;20649;-76
2022/04/26 06:56:56;;;;;;;16.30;3.90;;;22.60;82.50;;;;;;4918918;29;20659;-77
2022/04/26 06:59:21;;;;;;;6.78;2.63;;;21.80;81.70;;;;;;4935005;28;20295;-76
2022/04/26 07:01:52;;;;;;;3.38;2.70;;;21.50;81.10;;;;;;4918845;29;20291;-77
2022/04/26 07:04:19;;;;;;;3.50;3.13;;;21.60;79.10;;;;;;4921040;28;20207;-77
2022/04/26 07:06:45;;;;;;;3.25;2.13;;;21.90;78.90;;;;;;4919037;29;20196;-77
2022/04/26 07:09:10;;;;;;;5.00;2.58;;;22.30;75.60;;;;;;4935299;29;20208;-77
2022/04/26 07:11:36;;;;;;;7.55;2.47;;;22.50;74.60;;;;;;4935644;28;20679;-77
2022/04/26 07:14:02;;;;;;;4.03;2.60;;;23.00;74.50;;;;;;4936168;29;20263;-77
2022/04/26 07:16:27;;;;;;;5.15;2.30;;;23.90;72.60;;;;;;4918198;28;20262;-77
2022/04/26 07:18:53;;;;;;;4.97;2.45;;;23.10;71.00;;;;;;4935518;29;20576;-78
2022/04/26 07:21:18;;;;;;;6.22;2.80;;;23.20;70.70;;;;;;4935748;29;20215;-77
2022/04/26 07:23:44;;;;;;;3.38;2.03;;;22.80;72.10;;;;;;4918575;29;20370;-77
2022/04/26 07:26:09;;;;;;;2.50;2.28;;;24.10;69.50;;;;;;4922726;29;20230;-77
2022/04/26 07:28:35;;;;;;;4.78;2.55;;;21.60;72.20;;;;;;4936225;29;20578;-76
2022/04/26 07:31:00;;;;;;;3.20;2.00;;;22.00;74.60;;;;;;4925936;29;20704;-75
2022/04/26 07:36:10;;;;;;;5.43;2.00;;;23.20;68.10;;;;;;4937203;29;20307;-75
2022/04/26 07:38:38;;;;;;;3.90;2.45;;;22.10;71.20;;;;;;4917285;29;20291;-76
2022/04/26 07:41:04;;;;;;;4.32;2.22;;;22.60;70.80;;;;;;4920683;29;20226;-81
2022/04/26 07:43:29;;;;;;;3.65;2.25;;;21.50;71.00;;;;;;4919812;29;20215;-77
2022/04/26 07:45:55;;;;;;;4.68;2.53;;;21.00;73.20;;;;;;4938890;29;20172;-77
2022/04/26 07:48:22;;;;;;;2.58;2.17;;;21.20;74.00;;;;;;4916382;29;20219;-77
2022/04/26 07:50:48;;;;;;;6.43;2.22;;;21.70;71.30;;;;;;4933731;29;20211;-78
2022/04/26 07:53:14;;;;;;;2.80;2.10;;;22.20;70.50;;;;;;4931206;29;20690;-77
2022/04/26 07:55:40;;;;;;;2.92;2.15;;;23.10;69.70;;;;;;4915956;29;20302;-78
2022/04/26 07:58:05;;;;;;;3.08;2.03;;;21.60;69.80;;;;;;4917068;29;20204;-78
2022/04/26 08:00:31;;;;;;;2.38;2.10;;;22.20;70.20;;;;;;4917695;29;20212;-77
2022/04/26 08:02:57;;;;;;;2.95;2.38;;;22.60;70.20;;;;;;4934601;29;20227;-76
2022/04/26 08:05:23;;;;;;;3.85;2.47;;;23.40;69.20;;;;;;4917550;29;20677;-77
2022/04/26 08:07:49;;;;;;;5.93;2.45;;;24.50;67.10;;;;;;4917177;29;20246;-77
2022/04/26 08:10:15;;;;;;;2.92;2.05;;;23.50;66.00;;;;;;4916739;29;20231;-76
2022/04/26 08:12:42;;;;;;;3.88;1.95;;;23.70;67.20;;;;;;4917573;29;20207;-77
2022/04/26 08:15:10;;;;;;;3.75;2.15;;;23.70;64.90;;;;;;4934496;29;20247;-76
2022/04/26 08:17:35;;;;;;;3.78;2.38;;;23.00;66.30;;;;;;4934169;28;20225;-76
2022/04/26 08:20:01;;;;;;;6.35;2.38;;;23.40;67.50;;;;;;4933599;29;20216;-77
2022/04/26 08:22:27;;;;;;;2.80;2.28;;;24.30;65.50;;;;;;4934172;29;20188;-77
2022/04/26 08:27:36;;;;;;;2.90;2.00;;;24.10;65.10;;;;;;4933961;29;20274;-77
2022/04/26 08:30:04;;;;;;;3.03;2.38;;;23.50;64.30;;;;;;4933646;28;20212;-77
2022/04/26 08:32:44;;;;;;;3.95;2.50;;;23.60;65.90;;;;;;4933881;29;20204;-78
2022/04/26 08:35:14;;;;;;;3.38;2.30;;;24.30;65.00;;;;;;4934172;28;20215;-76
2022/04/26 08:37:39;;;;;;;18.33;14.70;;;25.20;64.30;;;;;;4916197;29;20218;-76
2022/04/26 08:40:07;;;;;;;6.70;6.03;;;24.60;63.60;;;;;;4933828;29;20176;-76
2022/04/26 08:42:42;;;;;;;5.68;2.60;;;23.80;64.30;;;;;;4933857;29;20235;-76
2022/04/26 08:45:10;;;;;;;6.40;2.60;;;24.20;64.70;;;;;;4933850;29;20419;-77
2022/04/26 08:53:05;;;;;;;2.22;1.83;;;22.90;63.90;;;;;;4934042;29;20222;-77
2022/04/26 08:55:32;;;;;;;2.45;2.25;;;23.70;64.90;;;;;;4933676;29;20742;-77
2022/04/26 08:57:58;;;;;;;5.55;2.60;;;23.70;63.40;;;;;;4933864;29;20195;-77
2022/04/26 09:00:24;;;;;;;4.60;2.88;;;22.70;65.00;;;;;;4916426;29;20203;-77
2022/04/26 09:03:02;;;;;;;8.93;6.13;;;21.40;66.90;;;;;;4933706;29;20207;-77
2022/04/26 09:05:27;;;;;;;8.80;4.55;;;22.50;68.20;;;;;;4933645;28;20306;-80
2022/04/26 09:07:53;;;;;;;3.63;2.58;;;23.80;66.00;;;;;;4933821;29;20792;-75
2022/04/26 09:10:20;;;;;;;5.15;3.22;;;23.20;65.20;;;;;;4915380;28;20200;-75
2022/04/26 09:13:09;;;;;;;3.05;2.25;;;23.50;66.30;;;;;;4924970;29;20206;-78
2022/04/26 09:15:56;;;;;;;3.92;2.67;;;23.20;65.40;;;;;;4932013;29;20215;-75
2022/04/26 09:18:26;;;;;;;2.80;2.15;;;23.40;65.20;;;;;;4915889;29;20215;-78
2022/04/26 09:20:57;;;;;;;7.15;3.45;;;22.30;66.30;;;;;;4917053;29;20213;-77
2022/04/26 09:23:26;;;;;;;5.40;2.63;;;22.30;68.40;;;;;;4913777;29;20294;-78
2022/04/26 09:26:10;;;;;;;3.88;2.20;;;20.80;69.00;;;;;;4934155;29;20259;-77
2022/04/26 09:28:37;;;;;;;5.00;2.85;;;20.30;70.00;;;;;;4934024;29;20217;-77
2022/04/26 09:31:22;;;;;;;3.05;2.75;;;19.50;72.70;;;;;;4936772;29;20184;-80
2022/04/26 09:33:51;;;;;;;3.78;3.00;;;19.60;74.00;;;;;;4919342;29;20230;-78
2022/04/26 09:36:18;;;;;;;4.63;2.72;;;20.00;74.30;;;;;;4917048;29;20287;-78
2022/04/26 09:38:56;;;;;;;3.42;2.83;;;20.20;72.70;;;;;;4915664;29;20582;-77
2022/04/26 09:41:23;;;;;;;5.72;3.55;;;20.30;73.50;;;;;;4933638;29;20239;-77
2022/04/26 09:44:01;;;;;;;3.70;2.50;;;20.80;74.40;;;;;;4916983;29;20294;-79
2022/04/26 09:46:44;;;;;;;3.78;2.75;;;21.10;72.20;;;;;;4918131;29;20207;-79
2022/04/26 09:49:11;;;;;;;5.53;3.25;;;21.20;72.40;;;;;;4934106;29;20192;-77
2022/04/26 09:51:37;;;;;;;4.93;2.97;;;21.40;71.40;;;;;;4937063;29;20695;-79
2022/04/26 09:54:03;;;;;;;3.53;2.45;;;21.70;72.10;;;;;;4939242;28;20243;-78
2022/04/26 09:56:31;;;;;;;3.50;2.45;;;21.20;71.70;;;;;;4945973;29;20251;-81
2022/04/26 09:58:58;;;;;;;3.70;2.55;;;21.10;71.30;;;;;;4920969;29;20278;-75
2022/04/26 10:01:34;;;;;;;3.72;2.70;;;20.40;72.80;;;;;;4925802;29;20195;-76
2022/04/26 10:04:06;;;;;;;6.72;2.85;;;20.80;72.80;;;;;;4921990;29;20270;-78
2022/04/26 10:06:39;;;;;;;5.35;2.65;;;20.50;72.70;;;;;;4940309;28;20688;-77
2022/04/26 10:09:06;;;;;;;4.57;3.03;;;20.90;72.90;;;;;;4940819;29;20234;-81
2022/04/26 10:11:32;;;;;;;3.75;2.85;;;20.50;73.00;;;;;;4925791;29;20220;-77
2022/04/26 10:14:01;;;;;;;4.82;2.90;;;19.30;74.10;;;;;;4921504;29;20204;-77
2022/04/26 10:16:26;;;;;;;5.65;3.08;;;19.10;75.90;;;;;;4936516;29;20270;-77
2022/04/26 10:19:06;;;;;;;4.43;2.75;;;18.90;76.80;;;;;;4922707;29;20180;-80
2022/04/26 10:21:38;;;;;;;5.00;3.75;;;19.00;76.80;;;;;;4948713;29;20406;-80
2022/04/26 10:24:17;;;;;;;5.05;3.30;;;18.10;78.40;;;;;;4952450;29;20218;-83
2022/04/26 10:26:44;;;;;;;3.17;2.45;;;18.20;79.70;;;;;;4945340;28;20208;-83
2022/04/26 10:29:10;;;;;;;3.90;2.47;;;18.90;78.20;;;;;;4923158;29;20279;-84
2022/04/26 10:31:35;;;;;;;3.55;2.45;;;19.10;77.50;;;;;;4932486;29;20212;-83
2022/04/26 10:34:29;;;;;;;4.47;2.60;;;19.60;76.00;;;;;;4931093;29;20172;-85
2022/04/26 10:37:06;;;;;;;5.70;2.65;;;19.50;76.40;;;;;;4920615;29;20235;-77
2022/04/26 10:39:34;;;;;;;3.55;2.50;;;20.10;76.00;;;;;;4935178;29;20220;-76
2022/04/26 10:42:21;;;;;;;4.38;2.38;;;20.10;75.90;;;;;;4922338;29;20263;-75
2022/04/26 10:44:48;;;;;;;3.92;2.80;;;19.70;74.60;;;;;;4936463;29;20208;-78
2022/04/26 10:47:18;;;;;;;4.97;2.92;;;18.90;76.40;;;;;;4931791;23;20234;-73
2022/04/26 10:49:45;;;;;;;7.72;2.92;;;18.40;77.80;;;;;;4935060;29;20771;-72
2022/04/26 10:52:22;;;;;;;4.97;3.15;;;18.30;77.90;;;;;;4936001;29;20264;-75
2022/04/26 10:55:07;;;;;;;3.55;2.60;;;18.50;77.00;;;;;;4936437;29;20198;-73
2022/04/26 10:57:44;;;;;;;4.90;2.58;;;19.10;78.30;;;;;;4918649;29;20645;-74
2022/04/26 11:00:17;;;;;;;3.95;2.90;;;19.20;76.70;;;;;;4918371;29;20637;-72
2022/04/26 11:02:48;;;;;;;4.68;2.60;;;19.00;77.70;;;;;;4936661;29;20218;-73
2022/04/26 11:05:16;;;;;;;5.40;2.60;;;19.00;78.20;;;;;;4936161;29;20290;-72
2022/04/26 11:07:48;;;;;;;6.15;2.60;;;19.60;78.90;;;;;;4915591;28;20250;-74
2022/04/26 11:10:25;;;;;;;3.22;2.38;;;20.00;77.20;;;;;;4926365;29;20181;-77
2022/04/26 11:12:51;;;;;;;3.88;2.35;;;19.80;75.30;;;;;;4913141;29;20330;-78
2022/04/26 11:15:21;;;;;;;3.67;2.13;;;19.80;76.20;;;;;;4936108;29;20220;-80
2022/04/26 11:17:49;;;;;;;3.70;2.63;;;19.80;75.20;;;;;;4934849;29;20207;-74
2022/04/26 11:20:24;;;;;;;4.18;2.35;;;19.70;75.00;;;;;;4934429;28;20216;-76
2022/04/26 11:22:57;;;;;;;4.32;2.70;;;19.70;74.40;;;;;;4935414;29;20293;-76
2022/04/26 11:28:12;;;;;;;5.57;3.17;;;19.70;75.60;;;;;;4930038;29;20234;-77
2022/04/26 11:30:48;;;;;;;3.85;3.17;;;19.00;75.80;;;;;;4940866;29;20211;-80
2022/04/26 11:33:15;;;;;;;5.07;3.60;;;19.20;75.10;;;;;;4935333;28;20259;-76
2022/04/26 11:35:42;;;;;;;5.18;2.97;;;19.20;74.70;;;;;;4937711;29;20224;-80
2022/04/26 11:38:08;;;;;;;4.32;3.40;;;18.80;75.30;;;;;;4934411;29;20220;-77
2022/04/26 11:40:41;;;;;;;5.63;2.67;;;19.20;75.90;;;;;;4917666;29;20211;-77
2022/04/26 11:43:20;;;;;;;4.43;2.42;;;19.10;75.50;;;;;;4937406;29;20172;-75
2022/04/26 11:45:48;;;;;;;5.80;2.63;;;19.70;73.80;;;;;;4917986;29;20596;-74
2022/04/26 11:48:29;;;;;;;4.90;3.40;;;20.20;75.20;;;;;;4933854;29;20235;-74
2022/04/26 11:50:55;;;;;;;5.55;2.40;;;20.20;74.30;;;;;;4932405;28;20207;-77
2022/04/26 11:53:26;;;;;;;2.90;2.60;;;20.10;75.00;;;;;;4916259;29;20218;-75
2022/04/26 11:55:53;;;;;;;3.95;2.70;;;19.40;74.90;;;;;;4934271;29;20584;-75
2022/04/26 11:58:23;;;;;;;4.63;3.50;;;19.60;77.40;;;;;;4933372;29;20302;-75
2022/04/26 12:00:49;;;;;;;4.20;2.58;;;18.40;75.60;;;;;;4935293;29;20553;-75
2022/04/26 12:03:16;;;;;;;6.00;4.30;;;18.80;76.70;;;;;;4934392;29;20754;-77
2022/04/26 12:05:53;;;;;;;4.75;3.15;;;18.40;77.50;;;;;;4934373;29;20231;-74
2022/04/26 12:08:21;;;;;;;4.50;3.33;;;18.40;77.90;;;;;;4933780;29;20278;-75
2022/04/26 12:10:48;;;;;;;4.93;3.05;;;18.50;77.90;;;;;;4934195;28;20229;-74
2022/04/26 12:13:14;;;;;;;5.57;3.22;;;19.00;77.90;;;;;;4916998;29;20180;-74
2022/04/26 12:15:42;;;;;;;4.22;3.00;;;18.20;78.10;;;;;;4933571;29;20218;-77
2022/04/26 12:18:09;;;;;;;3.75;2.53;;;18.50;79.70;;;;;;4914408;28;20270;-74
2022/04/26 12:20:36;;;;;;;5.70;3.15;;;18.90;77.30;;;;;;4928634;29;20208;-75
2022/04/26 12:23:04;;;;;;;7.03;3.25;;;18.80;76.20;;;;;;4934674;28;20289;-72
2022/04/26 12:25:30;;;;;;;4.10;2.63;;;18.60;77.40;;;;;;4914933;29;20219;-71
2022/04/26 12:28:22;;;;;;;3.67;2.60;;;18.60;75.00;;;;;;4934045;29;20251;-72
2022/04/26 12:30:47;;;;;;;3.55;2.58;;;18.90;75.70;;;;;;4913258;29;20231;-71
2022/04/26 12:33:35;;;;;;;5.80;4.78;;;19.00;77.50;;;;;;4933896;29;20211;-73
2022/04/26 12:36:06;;;;;;;14.13;7.90;;;18.20;76.10;;;;;;4917018;29;20208;-71
2022/04/26 12:38:50;;;;;;;19.67;14.07;;;18.10;76.70;;;;;;4933438;29;20220;-71
2022/04/26 12:41:16;;;;;;;11.18;7.47;;;18.20;77.00;;;;;;4934500;29;20685;-72
2022/04/26 12:43:43;;;;;;;3.03;2.60;;;18.20;77.30;;;;;;4917144;29;20214;-71
2022/04/26 12:46:09;;;;;;;3.88;2.70;;;18.30;76.90;;;;;;4934524;29;20825;-71
2022/04/26 12:51:25;;;;;;;4.47;2.88;;;18.90;76.60;;;;;;4934088;29;20290;-70
2022/04/26 12:53:52;;;;;;;3.50;2.50;;;19.20;75.50;;;;;;4934060;29;20290;-72
2022/04/26 12:56:19;;;;;;;2.55;2.35;;;19.50;74.90;;;;;;4933468;29;20302;-74
2022/04/26 12:58:47;;;;;;;4.45;2.95;;;19.60;78.20;;;;;;4933174;29;20650;-72
2022/04/26 13:01:14;;;;;;;3.22;2.63;;;19.90;80.90;;;;;;4933853;29;20219;-71
2022/04/26 13:03:41;;;;;;;4.05;2.53;;;20.00;80.60;;;;;;4933996;29;20231;-73
2022/04/26 13:06:12;;;;;;;4.30;2.72;;;20.20;76.60;;;;;;4933649;29;20231;-72
2022/04/26 13:08:40;;;;;;;3.50;2.60;;;20.00;76.00;;;;;;4932722;29;20215;-73
2022/04/26 13:11:07;;;;;;;5.88;2.60;;;20.10;77.10;;;;;;4933545;29;20216;-72
2022/04/26 13:13:35;;;;;;;3.65;2.35;;;20.10;78.20;;;;;;4933514;29;20583;-71
2022/04/26 13:16:02;;;;;;;6.32;2.58;;;20.00;76.00;;;;;;4934073;29;20196;-69
2022/04/26 13:18:28;;;;;;;13.23;8.40;;;19.70;75.10;;;;;;4915442;29;20212;-69
2022/04/26 13:20:55;;;;;;;14.43;8.50;;;19.80;80.30;;;;;;4916325;29;20228;-70
2022/04/26 13:23:21;;;;;;;6.72;4.00;;;19.90;78.30;;;;;;4916453;29;20298;-70
2022/04/26 13:25:47;;;;;;;4.65;2.83;;;19.90;77.10;;;;;;4933978;29;20566;-70
2022/04/26 13:28:13;;;;;;;4.03;2.55;;;20.10;75.10;;;;;;4936698;29;20204;-71
2022/04/26 13:30:39;;;;;;;2.75;2.47;;;20.00;74.90;;;;;;4937889;29;20612;-71
2022/04/26 13:33:05;;;;;;;4.15;2.97;;;20.20;75.20;;;;;;4920295;29;20239;-70
2022/04/26 13:35:30;;;;;;;4.50;2.90;;;19.50;74.10;;;;;;4937049;29;20704;-70
2022/04/26 13:37:58;;;;;;;3.45;2.80;;;19.30;74.20;;;;;;4936837;29;20215;-71
2022/04/26 13:40:24;;;;;;;3.25;2.67;;;19.10;74.80;;;;;;4937053;29;20239;-70
2022/04/26 13:42:51;;;;;;;4.47;2.90;;;18.90;74.70;;;;;;4937792;29;20223;-71
2022/04/26 13:45:20;;;;;;;3.38;2.20;;;19.10;75.80;;;;;;4920184;29;20215;-70
2022/04/26 13:47:49;;;;;;;4.32;2.60;;;19.20;75.50;;;;;;4919547;29;20219;-70
2022/04/26 13:50:15;;;;;;;5.57;2.90;;;19.40;75.40;;;;;;4936505;29;20215;-71
2022/04/26 13:52:42;;;;;;;5.60;2.92;;;19.30;75.10;;;;;;4937027;29;20219;-70
2022/04/26 13:55:08;;;;;;;5.40;2.53;;;19.60;75.60;;;;;;4920082;29;20266;-71
2022/04/26 13:57:33;;;;;;;2.83;2.42;;;19.80;74.10;;;;;;4919524;29;20536;-70
2022/04/26 13:59:59;;;;;;;6.07;2.58;;;20.00;74.50;;;;;;4936326;29;20628;-72
2022/04/26 14:02:25;;;;;;;2.78;2.42;;;20.10;73.80;;;;;;4936583;29;20208;-70
2022/04/26 14:04:56;;;;;;;6.35;2.67;;;20.20;73.40;;;;;;4919601;29;20254;-70
2022/04/26 14:07:22;;;;;;;4.00;2.53;;;20.50;73.50;;;;;;4919592;29;20274;-71
2022/04/26 14:09:48;;;;;;;5.13;2.78;;;20.50;72.90;;;;;;4919413;29;20255;-70
2022/04/26 14:12:17;;;;;;;3.63;2.30;;;20.60;71.00;;;;;;4919631;29;20232;-70
2022/04/26 14:22:56;;;;;;;3.75;2.38;;;20.10;71.90;;;;;;4936901;29;20591;-71
2022/04/26 14:25:24;;;;;;;2.97;2.38;;;20.10;70.40;;;;;;4936063;29;20188;-71
2022/04/26 14:27:49;;;;;;;4.40;2.78;;;20.30;70.60;;;;;;4936417;29;20203;-72
2022/04/26 14:30:16;;;;;;;3.33;2.17;;;20.40;70.50;;;;;;4918771;29;20262;-72
2022/04/26 14:32:43;;;;;;;5.25;2.42;;;20.50;70.90;;;;;;4918887;29;20223;-71
2022/04/26 14:35:09;;;;;;;2.67;2.20;;;20.50;71.00;;;;;;4918885;29;20230;-69
2022/04/26 14:37:38;;;;;;;11.57;6.97;;;20.50;72.70;;;;;;4935015;29;20216;-69
2022/04/26 14:40:08;;;;;;;4.78;2.88;;;20.40;72.90;;;;;;4918643;29;20712;-70
2022/04/26 14:42:34;;;;;;;10.20;5.45;;;20.30;71.40;;;;;;4935976;29;20219;-70
2022/04/26 14:44:59;;;;;;;9.57;5.57;;;20.10;71.80;;;;;;4936220;29;20203;-70
2022/04/26 14:47:30;;;;;;;19.65;11.23;;;20.00;72.70;;;;;;4936280;29;20294;-70
2022/04/26 14:49:59;;;;;;;4.93;2.83;;;20.00;72.90;;;;;;4936326;29;20711;-70
2022/04/26 14:52:25;;;;;;;4.70;2.75;;;20.00;72.30;;;;;;4919128;29;20637;-70
2022/04/26 14:54:51;;;;;;;2.15;1.88;;;19.90;72.70;;;;;;4936800;29;20164;-72
2022/04/26 14:57:21;;;;;;;1.88;1.65;;;19.90;71.70;;;;;;4935628;29;20240;-70
2022/04/26 14:59:47;;;;;;;3.92;1.98;;;19.70;71.40;;;;;;4935127;29;20235;-70
2022/04/26 15:02:17;;;;;;;3.05;1.95;;;19.60;71.30;;;;;;4935647;29;20215;-70
2022/04/26 15:04:42;;;;;;;4.68;2.55;;;19.60;71.80;;;;;;4918430;29;20235;-70
2022/04/26 15:07:08;;;;;;;4.00;2.13;;;19.50;71.10;;;;;;4935789;29;20712;-71
2022/04/26 15:09:43;;;;;;;3.95;2.22;;;19.50;71.30;;;;;;4934576;29;20297;-71
2022/04/26 15:17:42;;;;;;;2.22;2.05;;;19.50;73.00;;;;;;4934822;29;20226;-70
2022/04/26 15:20:08;;;;;;;3.47;2.70;;;19.60;73.10;;;;;;4934657;29;20298;-71
2022/04/26 15:22:36;;;;;;;2.55;2.17;;;19.60;72.20;;;;;;4917946;29;20214;-71
2022/04/26 15:25:04;;;;;;;3.08;2.33;;;19.30;72.40;;;;;;4935571;29;20211;-71
2022/04/26 15:27:30;;;;;;;3.63;2.20;;;19.50;73.30;;;;;;4934006;29;20287;-70
2022/04/26 15:29:56;;;;;;;2.45;2.13;;;19.30;73.40;;;;;;4917250;29;20315;-70
2022/04/26 15:32:23;;;;;;;4.20;2.15;;;19.40;74.10;;;;;;4934800;29;20212;-71
2022/04/26 15:34:49;;;;;;;2.50;2.15;;;19.40;74.90;;;;;;4917650;29;20235;-71
2022/04/26 15:37:15;;;;;;;2.47;1.75;;;19.30;75.40;;;;;;4934697;29;20211;-70
2022/04/26 15:39:42;;;;;;;2.45;1.75;;;19.20;75.90;;;;;;4917092;29;20196;-70
2022/04/26 15:42:08;;;;;;;3.83;2.13;;;19.20;76.50;;;;;;4917544;29;20203;-70
2022/04/26 15:44:34;;;;;;;2.78;2.50;;;19.20;76.60;;;;;;4917389;29;20212;-70
2022/04/26 15:46:59;;;;;;;2.38;1.77;;;19.20;76.30;;;;;;4917328;29;20298;-70
2022/04/26 15:49:25;;;;;;;6.20;2.10;;;19.10;75.90;;;;;;4933554;29;20266;-70
2022/04/26 15:51:52;;;;;;;3.20;2.00;;;19.00;75.70;;;;;;4918473;29;20183;-70
2022/04/26 15:54:18;;;;;;;1.70;1.60;;;18.70;75.60;;;;;;4934565;29;20215;-70
2022/04/26 15:56:44;;;;;;;2.17;1.98;;;18.70;76.10;;;;;;4917011;29;20309;-71
2022/04/26 15:59:13;;;;;;;3.45;1.98;;;18.60;76.20;;;;;;4933449;29;20294;-71
2022/04/26 16:01:41;;;;;;;2.92;2.17;;;18.70;76.60;;;;;;4917357;29;20222;-70
2022/04/26 16:04:11;;;;;;;5.07;2.05;;;18.70;76.10;;;;;;4934825;29;20191;-70
2022/04/26 16:06:41;;;;;;;2.97;1.88;;;18.50;76.10;;;;;;4934461;29;20294;-70
2022/04/26 16:22:54;;;;;;;4.30;2.70;;;18.80;78.30;;;;;;4934189;29;20568;-70
2022/04/26 16:25:20;;;;;;;2.25;1.98;;;18.90;78.20;;;;;;4916926;29;20179;-70
2022/04/26 16:27:48;;;;;;;4.60;2.50;;;18.90;77.60;;;;;;4917015;29;20202;-71
2022/04/26 16:30:15;;;;;;;2.53;1.75;;;18.80;77.70;;;;;;4916671;29;20215;-70
2022/04/26 16:32:42;;;;;;;2.63;2.30;;;18.80;77.80;;;;;;4917019;29;20310;-71
2022/04/26 16:35:10;;;;;;;3.33;2.50;;;18.70;77.90;;;;;;4925880;29;20211;-71
2022/04/26 16:37:36;;;;;;;3.53;2.42;;;18.60;78.00;;;;;;4921021;28;20216;-79
2022/04/26 16:40:09;;;;;;;4.22;2.40;;;18.40;78.60;;;;;;4928958;29;20195;-77
2022/04/26 16:42:36;;;;;;;3.17;2.42;;;18.30;78.40;;;;;;4930760;29;20215;-70
2022/04/26 16:45:04;;;;;;;6.88;2.40;;;18.30;78.90;;;;;;4909572;29;20305;-72
2022/04/26 16:47:30;;;;;;;4.37;2.10;;;18.40;79.50;;;;;;4937079;23;20274;-72
2022/04/26 16:49:55;;;;;;;2.45;2.10;;;18.40;79.70;;;;;;4917848;28;20299;-74
2022/04/26 16:52:20;;;;;;;3.70;2.17;;;18.30;79.50;;;;;;4918603;28;20556;-73
2022/04/26 16:54:46;;;;;;;3.83;2.30;;;18.20;79.80;;;;;;4930595;29;20653;-76
2022/04/26 16:57:11;;;;;;;5.50;2.28;;;18.00;79.90;;;;;;4935649;29;20219;-74
2022/04/26 16:59:37;;;;;;;3.38;2.38;;;17.90;80.40;;;;;;4931739;29;20223;-78
2022/04/26 17:02:03;;;;;;;3.45;2.35;;;18.00;81.20;;;;;;4937053;29;20323;-74
2022/04/26 17:04:30;;;;;;;5.13;2.75;;;17.90;80.90;;;;;;4934662;29;20187;-75
2022/04/26 17:06:55;;;;;;;5.10;3.20;;;18.00;81.10;;;;;;4929716;29;20172;-75
2022/04/26 17:09:21;;;;;;;2.63;2.05;;;18.00;81.70;;;;;;4935365;28;20355;-76
2022/04/26 17:11:47;;;;;;;3.47;2.78;;;17.90;80.80;;;;;;4936043;29;20231;-72
2022/04/26 17:14:14;;;;;;;3.38;2.40;;;17.90;80.80;;;;;;4937438;28;20211;-77